Map

Track Data

SID SEASON NUMBER BASIN SUBBASIN NAME ISO_TIME NATURE LAT LON WMO_WIND WMO_PRES WMO_AGENCY TRACK_TYPE DIST2LAND LANDFALL IFLAG USA_AGENCY USA_ATCF_ID USA_LAT USA_LON USA_RECORD USA_STATUS USA_WIND USA_PRES USA_SSHS USA_R34_NE USA_R34_SE USA_R34_SW USA_R34_NW USA_R50_NE USA_R50_SE USA_R50_SW USA_R50_NW USA_R64_NE USA_R64_SE USA_R64_SW USA_R64_NW USA_POCI USA_ROCI USA_RMW USA_EYE TOKYO_LAT TOKYO_LON TOKYO_GRADE TOKYO_WIND TOKYO_PRES TOKYO_R50_DIR TOKYO_R50_LONG TOKYO_R50_SHORT TOKYO_R30_DIR TOKYO_R30_LONG TOKYO_R30_SHORT TOKYO_LAND CMA_LAT CMA_LON CMA_CAT CMA_WIND CMA_PRES HKO_LAT HKO_LON HKO_CAT HKO_WIND HKO_PRES NEWDELHI_LAT NEWDELHI_LON NEWDELHI_GRADE NEWDELHI_WIND NEWDELHI_PRES NEWDELHI_CI NEWDELHI_DP NEWDELHI_POCI REUNION_LAT REUNION_LON REUNION_TYPE REUNION_WIND REUNION_PRES REUNION_TNUM REUNION_CI REUNION_RMW REUNION_R34_NE REUNION_R34_SE REUNION_R34_SW REUNION_R34_NW REUNION_R50_NE REUNION_R50_SE REUNION_R50_SW REUNION_R50_NW REUNION_R64_NE REUNION_R64_SE REUNION_R64_SW REUNION_R64_NW BOM_LAT BOM_LON BOM_TYPE BOM_WIND BOM_PRES BOM_TNUM BOM_CI BOM_RMW BOM_R34_NE BOM_R34_SE BOM_R34_SW BOM_R34_NW BOM_R50_NE BOM_R50_SE BOM_R50_SW BOM_R50_NW BOM_R64_NE BOM_R64_SE BOM_R64_SW BOM_R64_NW BOM_ROCI BOM_POCI BOM_EYE BOM_POS_METHOD BOM_PRES_METHOD NADI_LAT NADI_LON NADI_CAT NADI_WIND NADI_PRES WELLINGTON_LAT WELLINGTON_LON WELLINGTON_WIND WELLINGTON_PRES DS824_LAT DS824_LON DS824_STAGE DS824_WIND DS824_PRES TD9636_LAT TD9636_LON TD9636_STAGE TD9636_WIND TD9636_PRES TD9635_LAT TD9635_LON TD9635_WIND TD9635_PRES TD9635_ROCI NEUMANN_LAT NEUMANN_LON NEUMANN_CLASS NEUMANN_WIND NEUMANN_PRES MLC_LAT MLC_LON MLC_CLASS MLC_WIND MLC_PRES USA_GUST BOM_GUST BOM_GUST_PER REUNION_GUST REUNION_GUST_PER USA_SEAHGT USA_SEARAD_NE USA_SEARAD_SE USA_SEARAD_SW USA_SEARAD_NW STORM_SPEED STORM_DIR
1893298N11096 1893 58 NI BB NOT_NAMED 1893-10-25 00:00:00 TS 11.2000 95.6000 main 323 323 _________O____ -1 11.2000 95.6000 TC 34 4 302
1893298N11096 1893 58 NI BB NOT_NAMED 1893-10-25 03:00:00 TS 11.3000 95.4350 main 344 344 _________PO___ -1 11.3500 95.3525 TC 36 11.2000 95.6000 2 5 301
1893298N11096 1893 58 NI BB NOT_NAMED 1893-10-25 06:00:00 TS 11.4407 95.1963 main 363 362 _________OP___ -1 11.5000 95.1000 TC 39 11.3517 95.3409 2 6 301
1893298N11096 1893 58 NI BB NOT_NAMED 1893-10-25 09:00:00 TS 11.5869 94.9465 main 393 393 _________PP___ -1 11.6500 94.8425 TC 42 11.5027 95.0852 2 5 301
1893298N11096 1893 58 NI BB NOT_NAMED 1893-10-25 12:00:00 TS 11.7262 94.7185 main 414 413 _________OP___ -1 11.8000 94.6000 TC 45 11.6523 94.8370 2 5 303
1893298N11096 1893 58 NI BB NOT_NAMED 1893-10-25 15:00:00 TS 11.8750 94.4962 main 428 419 _________PO___ -1 11.9500 94.3925 TC 45 11.8000 94.6000 3 5 305
1893298N11096 1893 58 NI BB NOT_NAMED 1893-10-25 18:00:00 TS 12.0229 94.2887 main 421 403 _________OP___ -1 12.1000 94.2000 TC 45 11.9459 94.3774 3 5 306
1893298N11096 1893 58 NI BB NOT_NAMED 1893-10-25 21:00:00 TS 12.1712 94.0812 main 403 394 _________PP___ -1 12.2500 93.9925 TC 45 12.0924 94.1699 3 5 307
1893298N11096 1893 58 NI BB NOT_NAMED 1893-10-26 00:00:00 TS 12.3214 93.8887 main 395 377 _________OP___ -1 12.4000 93.8000 TC 45 12.2428 93.9774 3 5 310
1893298N11096 1893 58 NI BB NOT_NAMED 1893-10-26 03:00:00 TS 12.4712 93.7212 main 377 368 _________PO___ -1 12.5425 93.6425 TC 45 12.4000 93.8000 3 5 315
1893298N11096 1893 58 NI BB NOT_NAMED 1893-10-26 06:00:00 TS 12.6359 93.5617 main 368 349 _________OP___ -1 12.7000 93.5000 TC 45 12.5718 93.6234 3 5 319
1893298N11096 1893 58 NI BB NOT_NAMED 1893-10-26 09:00:00 TS 12.8250 93.4025 main 352 335 _________PP___ -1 12.9000 93.3425 TC 45 12.7500 93.4625 3 5 322
1893298N11096 1893 58 NI BB NOT_NAMED 1893-10-26 12:00:00 TS 13.0141 93.2602 main 335 318 _________OP___ -1 13.1000 93.2000 TC 45 12.9281 93.3203 3 4 324
1893298N11096 1893 58 NI BB NOT_NAMED 1893-10-26 15:00:00 TS 13.1787 93.1425 main 322 312 _________PO___ -1 13.2575 93.0850 TC 45 13.1000 93.2000 3 4 326
1893298N11096 1893 58 NI BB NOT_NAMED 1893-10-26 18:00:00 TS 13.3164 93.0476 main 317 308 _________OP___ -1 13.4000 93.0000 TC 45 13.2328 93.0952 3 3 329
1893298N11096 1893 58 NI BB NOT_NAMED 1893-10-26 21:00:00 TS 13.4450 92.9774 main 308 294 _________PP___ -1 13.5275 92.9425 TC 45 13.3625 93.0124 3 3 338
1893298N11096 1893 58 NI BB NOT_NAMED 1893-10-27 00:00:00 TS 13.6055 92.9242 main 294 275 _________OP___ -1 13.7000 92.9000 TC 45 13.5109 92.9484 3 4 345
1893298N11096 1893 58 NI BB NOT_NAMED 1893-10-27 03:00:00 TS 13.8388 92.8713 main 275 256 _________PO___ -1 13.9775 92.8425 TC 45 13.7000 92.9000 3 5 350
1893298N11096 1893 58 NI BB NOT_NAMED 1893-10-27 06:00:00 TS 14.1325 92.8263 main 256 232 _________OP___ -1 14.3000 92.8000 TC 45 13.9650 92.8525 3 6 353
1893298N11096 1893 58 NI BB NOT_NAMED 1893-10-27 09:00:00 TS 14.4387 92.8063 main 232 209 _________PP___ -1 14.6075 92.7925 TC 45 14.2700 92.8201 3 6 358
1893298N11096 1893 58 NI BB NOT_NAMED 1893-10-27 12:00:00 TS 14.7450 92.8013 main 209 187 _________OP___ -1 14.9000 92.8000 TC 45 14.5900 92.8026 3 6 0
1893298N11096 1893 58 NI BB NOT_NAMED 1893-10-27 15:00:00 TS 15.0287 92.7963 main 187 169 _________PO___ -1 15.1575 92.7925 TC 45 14.9000 92.8000 3 5 0
1893298N11096 1893 58 NI BB NOT_NAMED 1893-10-27 18:00:00 TS 15.2746 92.8068 main 169 159 _________OP___ -1 15.4000 92.8000 TC 45 15.1806 92.8118 3 5 4
1893298N11096 1893 58 NI BB NOT_NAMED 1893-10-27 21:00:00 TS 15.5200 92.8369 main 159 143 _________PP___ -1 15.6475 92.8400 TC 45 15.4350 92.8349 3 5 8
1893298N11096 1893 58 NI BB NOT_NAMED 1893-10-28 00:00:00 TS 15.7479 92.8770 main 143 139 _________OP___ -1 15.9000 92.9000 TC 45 15.6719 92.8655 3 4 8
1893298N11096 1893 58 NI BB NOT_NAMED 1893-10-28 03:00:00 NR 15.9000 92.9000 main 139 __________O___ -1 TC 15.9000 92.9000 3 3 7

About IBTrACS Database

This database is a web-friendly format of International Best Track Archive for Climate Stewardship (IBTrACS), a global best track data archive curated by NOAA dating back to 1842.

Updated: 2021-11-26